createdAt,value
2022-12-08T00:01:21.320Z,6.20
2022-12-08T00:02:44.286Z,7.30
2022-12-08T00:05:44.323Z,6.50
2022-12-08T00:07:23.202Z,5.90
2022-12-08T00:09:02.428Z,6.60
2022-12-08T00:10:48.049Z,6.90
2022-12-08T00:12:07.653Z,6.20
2022-12-08T00:13:27.777Z,6.80
2022-12-08T00:14:49.873Z,7.00
2022-12-08T00:16:10.923Z,7.50
2022-12-08T00:17:31.660Z,7.20
2022-12-08T00:18:51.824Z,7.10
2022-12-08T00:20:12.436Z,7.10
2022-12-08T00:21:32.770Z,6.40
2022-12-08T00:22:53.226Z,7.30
2022-12-08T00:24:13.840Z,7.20
2022-12-08T00:25:37.296Z,8.70
2022-12-08T00:26:57.761Z,6.80
2022-12-08T00:28:18.434Z,7.50
2022-12-08T00:29:38.979Z,6.90
2022-12-08T00:31:00.589Z,7.30
2022-12-08T00:32:20.788Z,7.60
2022-12-08T00:33:41.125Z,7.40
2022-12-08T00:35:01.593Z,8.30
2022-12-08T00:36:22.360Z,7.70
2022-12-08T00:37:42.952Z,7.70
2022-12-08T00:39:03.476Z,7.40
2022-12-08T00:40:23.857Z,7.00
2022-12-08T00:42:02.679Z,8.00
2022-12-08T00:43:23.252Z,7.30
2022-12-08T00:44:45.699Z,8.70
2022-12-08T00:46:06.376Z,7.30
2022-12-08T00:47:27.509Z,7.90
2022-12-08T00:48:47.499Z,7.50
2022-12-08T00:50:08.143Z,7.20
2022-12-08T00:51:28.531Z,7.70
2022-12-08T00:52:49.078Z,7.10
2022-12-08T00:54:10.134Z,7.60
2022-12-08T00:55:30.344Z,7.70
2022-12-08T00:56:50.391Z,8.00
2022-12-08T00:58:10.752Z,8.30
2022-12-08T00:59:31.953Z,6.90
2022-12-08T01:00:52.354Z,7.10
2022-12-08T01:02:12.884Z,7.60
2022-12-08T01:03:33.107Z,7.30
2022-12-08T01:04:53.505Z,7.50
2022-12-08T01:06:14.104Z,6.70
2022-12-08T01:07:35.902Z,7.20
2022-12-08T01:08:56.694Z,7.10
2022-12-08T01:10:17.252Z,7.40
2022-12-08T01:11:37.412Z,6.30
2022-12-08T01:12:58.631Z,6.60
2022-12-08T01:14:18.848Z,7.00
2022-12-08T01:15:39.263Z,7.90
2022-12-08T01:17:00.002Z,7.70
2022-12-08T01:18:20.077Z,7.10
2022-12-08T01:19:40.799Z,8.40
2022-12-08T01:21:08.322Z,7.30
2022-12-08T01:22:28.633Z,8.60
2022-12-08T01:23:48.972Z,7.10
2022-12-08T01:25:09.577Z,7.00
2022-12-08T01:26:29.648Z,8.20
2022-12-08T01:27:52.132Z,7.30
2022-12-08T01:29:12.702Z,7.40
2022-12-08T01:30:33.076Z,7.00
2022-12-08T01:31:53.699Z,7.10
2022-12-08T01:33:13.824Z,8.20
2022-12-08T01:34:34.805Z,7.30
2022-12-08T01:35:57.883Z,7.50
2022-12-08T01:37:18.515Z,8.60
2022-12-08T01:38:39.187Z,7.70
2022-12-08T01:39:59.783Z,7.60
2022-12-08T01:41:25.333Z,8.70
2022-12-08T01:42:45.910Z,7.60
2022-12-08T01:44:08.173Z,8.20
2022-12-08T01:45:31.199Z,8.20
2022-12-08T01:46:54.691Z,8.40
2022-12-08T01:48:25.877Z,9.30
2022-12-08T01:49:46.745Z,8.20
2022-12-08T01:51:07.535Z,8.80
2022-12-08T01:52:39.210Z,8.60
2022-12-08T01:53:59.901Z,8.70
2022-12-08T01:55:26.521Z,9.70
2022-12-08T01:56:54.965Z,9.60
2022-12-08T01:58:19.799Z,8.90
2022-12-08T01:59:46.426Z,9.00
2022-12-08T02:01:08.914Z,8.90
2022-12-08T02:02:35.431Z,7.70
2022-12-08T02:04:01.451Z,9.40
2022-12-08T02:05:24.873Z,9.20
2022-12-08T02:06:47.805Z,8.40
2022-12-08T02:08:11.467Z,8.00
2022-12-08T02:09:31.805Z,9.00
2022-12-08T02:10:52.942Z,7.20
2022-12-08T02:12:13.348Z,9.00
2022-12-08T02:13:33.831Z,7.90
2022-12-08T02:14:54.326Z,8.50
2022-12-08T02:16:32.785Z,8.50
2022-12-08T02:18:20.728Z,7.50
2022-12-08T02:19:41.119Z,8.40
2022-12-08T02:21:24.339Z,8.50
2022-12-08T02:24:14.557Z,7.50
2022-12-08T02:25:55.466Z,7.80
2022-12-08T02:27:33.567Z,8.30
2022-12-08T02:29:19.073Z,8.60
2022-12-08T02:31:31.330Z,7.90
2022-12-08T02:33:15.630Z,8.70
2022-12-08T02:34:58.062Z,7.90
2022-12-08T02:36:51.386Z,8.50
2022-12-08T02:38:19.137Z,8.20
2022-12-08T02:39:55.792Z,8.40
2022-12-08T02:42:02.328Z,8.00
2022-12-08T02:43:32.272Z,7.70
2022-12-08T02:45:02.749Z,8.50
2022-12-08T02:46:38.179Z,8.70
2022-12-08T02:47:59.561Z,8.40
2022-12-08T02:49:20.188Z,7.90
2022-12-08T02:50:40.835Z,9.30
2022-12-08T02:52:27.936Z,8.30
2022-12-08T02:53:49.218Z,7.50
2022-12-08T02:55:21.079Z,9.00
2022-12-08T02:57:00.335Z,7.90
2022-12-08T02:58:57.983Z,7.90
2022-12-08T03:00:21.834Z,7.30
2022-12-08T03:02:13.280Z,8.30
2022-12-08T03:04:11.532Z,9.40
2022-12-08T03:05:52.793Z,8.10
2022-12-08T03:07:33.429Z,8.30
2022-12-08T03:09:18.725Z,9.40
2022-12-08T03:11:01.646Z,8.50
2022-12-08T03:12:34.524Z,8.60
2022-12-08T03:13:59.538Z,8.80
2022-12-08T03:15:22.053Z,9.10
2022-12-08T03:16:45.669Z,10.20
2022-12-08T03:19:38.758Z,6.30
2022-12-08T03:21:00.142Z,7.80
2022-12-08T03:22:24.420Z,9.00
2022-12-08T03:23:47.324Z,8.90
2022-12-08T03:25:12.679Z,7.30
2022-12-08T03:26:45.846Z,8.90
2022-12-08T03:28:06.336Z,10.10
2022-12-08T03:29:26.838Z,8.60
2022-12-08T03:30:50.990Z,8.80
2022-12-08T03:32:22.909Z,7.30
2022-12-08T03:33:49.934Z,7.50
2022-12-08T03:35:14.125Z,9.00
2022-12-08T03:36:34.725Z,8.10
2022-12-08T03:38:07.695Z,8.50
2022-12-08T03:39:28.967Z,7.80
2022-12-08T03:41:09.213Z,8.00
2022-12-08T03:42:29.531Z,8.40
2022-12-08T03:43:59.408Z,9.30
2022-12-08T03:45:19.999Z,7.90
2022-12-08T03:46:40.567Z,9.10
2022-12-08T03:48:00.930Z,7.80
2022-12-08T03:49:21.654Z,7.60
2022-12-08T03:50:42.116Z,8.10
2022-12-08T03:52:02.598Z,7.60
2022-12-08T03:53:22.835Z,8.30
2022-12-08T03:54:43.220Z,8.30
2022-12-08T03:56:16.454Z,8.20
2022-12-08T03:57:37.149Z,7.80
2022-12-08T03:58:59.198Z,7.80
2022-12-08T04:00:19.687Z,7.40
2022-12-08T04:01:40.337Z,8.70
2022-12-08T04:03:00.402Z,9.00
2022-12-08T04:04:20.680Z,8.70
2022-12-08T04:05:41.120Z,7.30
2022-12-08T04:07:01.603Z,8.20
2022-12-08T04:08:22.114Z,7.80
2022-12-08T04:09:42.829Z,7.80
2022-12-08T04:11:03.660Z,7.90
2022-12-08T04:12:24.037Z,8.10
2022-12-08T04:13:45.299Z,7.70
2022-12-08T04:15:06.498Z,7.40
2022-12-08T04:16:27.939Z,7.60
2022-12-08T04:17:48.875Z,8.20
2022-12-08T04:19:11.989Z,7.10
2022-12-08T04:20:32.558Z,6.90
2022-12-08T04:21:53.063Z,8.50
2022-12-08T04:23:13.574Z,7.90
2022-12-08T04:24:34.301Z,8.00
2022-12-08T04:25:54.846Z,7.80
2022-12-08T04:27:15.220Z,7.80
2022-12-08T04:28:36.494Z,8.40
2022-12-08T04:29:57.138Z,8.20
2022-12-08T04:31:17.999Z,7.00
2022-12-08T04:32:41.659Z,8.60
2022-12-08T04:34:04.817Z,10.10
2022-12-08T04:35:25.618Z,8.80
2022-12-08T04:36:46.425Z,8.90
2022-12-08T04:38:07.056Z,8.10
2022-12-08T04:39:27.395Z,9.80
2022-12-08T04:40:47.949Z,7.30
2022-12-08T04:42:08.466Z,7.50
2022-12-08T04:43:29.034Z,9.30
2022-12-08T04:44:49.769Z,7.30
2022-12-08T04:46:10.576Z,8.20
2022-12-08T04:47:31.221Z,9.20
2022-12-08T04:48:51.840Z,9.70
2022-12-08T04:50:13.266Z,6.60
2022-12-08T04:51:33.776Z,7.80
2022-12-08T04:52:54.737Z,7.10
2022-12-08T04:54:15.066Z,8.00
2022-12-08T04:55:38.148Z,7.80
2022-12-08T04:56:58.867Z,8.00
2022-12-08T04:58:20.130Z,8.00
2022-12-08T04:59:42.472Z,8.80
2022-12-08T05:01:03.079Z,7.10
2022-12-08T05:02:23.697Z,8.40
2022-12-08T05:03:44.027Z,8.30
2022-12-08T05:05:05.322Z,6.60
2022-12-08T05:06:25.798Z,7.40
2022-12-08T05:07:46.212Z,7.10
2022-12-08T05:09:06.867Z,8.20
2022-12-08T05:10:27.362Z,7.30
2022-12-08T05:11:49.275Z,7.60
2022-12-08T05:13:10.461Z,7.50
2022-12-08T05:14:31.165Z,7.20
2022-12-08T05:15:51.813Z,7.50
2022-12-08T05:17:12.415Z,7.10
2022-12-08T05:18:32.929Z,7.60
2022-12-08T05:19:53.265Z,8.00
2022-12-08T05:21:14.069Z,7.40
2022-12-08T05:22:34.498Z,6.70
2022-12-08T05:23:54.726Z,7.50
2022-12-08T05:25:15.304Z,6.90
2022-12-08T05:26:36.116Z,9.00
2022-12-08T05:28:17.688Z,6.20
2022-12-08T05:29:37.131Z,6.40
2022-12-08T05:30:57.484Z,7.10
2022-12-08T05:32:17.716Z,6.60
2022-12-08T05:33:38.270Z,7.40
2022-12-08T05:34:58.953Z,8.30
2022-12-08T05:36:20.199Z,7.80
2022-12-08T05:37:40.774Z,8.00
2022-12-08T05:39:01.039Z,7.50
2022-12-08T05:40:21.593Z,7.40
2022-12-08T05:41:42.115Z,7.20
2022-12-08T05:43:02.221Z,6.60
2022-12-08T05:44:22.489Z,6.70
2022-12-08T05:45:43.143Z,6.30
2022-12-08T05:47:04.048Z,7.00
2022-12-08T05:48:24.701Z,7.20
2022-12-08T05:49:45.019Z,6.30
2022-12-08T05:51:05.592Z,7.70
2022-12-08T05:52:26.073Z,7.10
2022-12-08T05:53:47.798Z,8.00
2022-12-08T05:55:08.970Z,7.60
2022-12-08T05:56:29.639Z,7.10
2022-12-08T05:57:49.956Z,6.70
2022-12-08T05:59:10.280Z,7.40
2022-12-08T06:00:30.851Z,7.10
2022-12-08T06:01:51.297Z,7.30
2022-12-08T06:03:13.261Z,8.10
2022-12-08T06:04:33.713Z,5.60
2022-12-08T06:05:54.305Z,7.00
2022-12-08T06:07:16.209Z,7.00
2022-12-08T06:08:36.827Z,6.50
2022-12-08T06:09:57.247Z,6.80
2022-12-08T06:11:26.798Z,5.20
2022-12-08T06:14:12.056Z,6.30
2022-12-08T06:15:35.095Z,7.30
2022-12-08T06:16:55.035Z,7.30
2022-12-08T06:18:15.648Z,7.00
2022-12-08T06:19:36.511Z,6.70
2022-12-08T06:21:05.452Z,6.60
2022-12-08T06:22:26.281Z,6.40
2022-12-08T06:23:52.869Z,7.60
2022-12-08T06:25:13.279Z,6.00
2022-12-08T06:26:35.947Z,7.20
2022-12-08T06:27:56.350Z,6.90
2022-12-08T06:29:16.857Z,6.30
2022-12-08T06:30:37.762Z,7.00
2022-12-08T06:31:58.514Z,6.80
2022-12-08T06:33:18.895Z,7.30
2022-12-08T06:34:39.446Z,8.50
2022-12-08T06:35:59.911Z,8.10
2022-12-08T06:37:20.464Z,7.50
2022-12-08T06:38:43.645Z,8.00
2022-12-08T06:40:04.766Z,7.70
2022-12-08T06:41:26.730Z,7.30
2022-12-08T06:42:47.273Z,7.90
2022-12-08T06:44:08.082Z,8.20
2022-12-08T06:45:28.589Z,8.40
2022-12-08T06:46:48.948Z,8.50
2022-12-08T06:48:09.537Z,7.50
2022-12-08T06:49:30.305Z,8.20
2022-12-08T06:50:50.995Z,7.40
2022-12-08T06:52:11.577Z,6.50
2022-12-08T06:53:32.138Z,7.10
2022-12-08T06:54:52.771Z,7.20
2022-12-08T06:56:15.839Z,6.10
2022-12-08T06:57:36.611Z,6.80
2022-12-08T06:58:56.892Z,6.40
2022-12-08T07:00:18.271Z,7.40
2022-12-08T07:01:38.884Z,6.90
2022-12-08T07:02:59.780Z,6.40
2022-12-08T07:04:20.688Z,7.60
2022-12-08T07:05:41.362Z,6.10
2022-12-08T07:07:01.942Z,6.70
2022-12-08T07:08:23.372Z,6.60
2022-12-08T07:09:43.958Z,6.00
2022-12-08T07:11:09.565Z,6.40
2022-12-08T07:12:29.948Z,6.40
2022-12-08T07:13:50.711Z,4.30
2022-12-08T07:15:11.139Z,6.70
2022-12-08T07:16:31.574Z,6.80
2022-12-08T07:17:57.879Z,7.50
2022-12-08T07:19:20.086Z,8.20
2022-12-08T07:20:40.669Z,6.90
2022-12-08T07:22:00.947Z,7.90
2022-12-08T07:23:21.177Z,7.40
2022-12-08T07:24:41.491Z,6.30
2022-12-08T07:26:07.732Z,6.30
2022-12-08T07:27:28.638Z,6.40
2022-12-08T07:28:49.229Z,5.90
2022-12-08T07:30:10.202Z,8.10
2022-12-08T07:31:30.566Z,6.80
2022-12-08T07:32:50.902Z,7.40
2022-12-08T07:34:12.912Z,7.70
2022-12-08T07:35:34.963Z,7.60
2022-12-08T07:36:55.622Z,7.10
2022-12-08T07:38:15.819Z,6.20
2022-12-08T07:39:36.698Z,7.10
2022-12-08T07:40:56.951Z,7.30
2022-12-08T07:42:17.536Z,5.80
2022-12-08T07:43:40.581Z,5.60
2022-12-08T07:45:01.212Z,5.50
2022-12-08T07:46:23.437Z,6.20
2022-12-08T07:47:43.922Z,6.60
2022-12-08T07:49:04.390Z,8.30
2022-12-08T07:50:24.876Z,7.50
2022-12-08T07:51:45.070Z,7.30
2022-12-08T07:53:06.454Z,6.00
2022-12-08T07:54:27.843Z,7.10
2022-12-08T07:55:48.035Z,7.20
2022-12-08T07:57:09.239Z,5.50
2022-12-08T07:58:29.546Z,6.80
2022-12-08T07:59:51.531Z,7.30
2022-12-08T08:01:29.983Z,7.50
2022-12-08T08:02:51.281Z,6.70
2022-12-08T08:04:11.542Z,5.90
2022-12-08T08:05:31.944Z,8.20
2022-12-08T08:06:52.333Z,6.70
2022-12-08T08:08:12.703Z,7.50
2022-12-08T08:09:34.242Z,5.70
2022-12-08T08:10:54.306Z,6.50
2022-12-08T08:12:30.697Z,6.40
2022-12-08T08:13:51.899Z,6.10
2022-12-08T08:15:12.509Z,5.50
2022-12-08T08:16:38.093Z,6.40
2022-12-08T08:17:58.727Z,6.10
2022-12-08T08:19:19.241Z,6.80
2022-12-08T08:20:40.798Z,7.00
2022-12-08T08:22:01.203Z,6.90
2022-12-08T08:23:21.134Z,7.30
2022-12-08T08:24:44.815Z,6.80
2022-12-08T08:27:26.851Z,6.40
2022-12-08T08:28:48.151Z,5.90
2022-12-08T08:30:15.242Z,6.80
2022-12-08T08:31:39.820Z,8.00
2022-12-08T08:33:00.466Z,5.70
2022-12-08T08:34:21.068Z,6.20
2022-12-08T08:35:42.289Z,6.90
2022-12-08T08:37:02.608Z,7.40
2022-12-08T08:38:23.320Z,6.10
2022-12-08T08:39:43.799Z,5.20
2022-12-08T08:41:09.750Z,5.90
2022-12-08T08:42:30.054Z,5.90
2022-12-08T08:43:50.524Z,7.30
2022-12-08T08:45:11.617Z,6.90
2022-12-08T08:46:32.018Z,6.40
2022-12-08T08:47:52.371Z,6.80
2022-12-08T08:49:13.100Z,5.10
2022-12-08T08:50:37.581Z,6.60
2022-12-08T08:51:58.300Z,6.70
2022-12-08T08:53:20.365Z,7.30
2022-12-08T08:54:40.778Z,3.80
2022-12-08T08:56:02.875Z,6.00
2022-12-08T08:57:25.774Z,7.30
2022-12-08T08:58:48.647Z,6.90
2022-12-08T09:00:12.957Z,6.70
2022-12-08T09:01:34.223Z,6.80
2022-12-08T09:02:54.597Z,6.50
2022-12-08T09:04:14.852Z,6.20
2022-12-08T09:05:35.207Z,6.10
2022-12-08T09:06:55.579Z,6.40
2022-12-08T09:08:16.020Z,5.80
2022-12-08T09:09:36.746Z,6.20
2022-12-08T09:10:57.349Z,5.80
2022-12-08T09:12:17.629Z,6.30
2022-12-08T09:13:38.095Z,6.20
2022-12-08T09:14:59.096Z,5.60
2022-12-08T09:16:20.394Z,6.20
2022-12-08T09:17:40.901Z,5.90
2022-12-08T09:19:02.422Z,5.50
2022-12-08T09:20:22.831Z,6.60
2022-12-08T09:21:42.895Z,7.00
2022-12-08T09:23:03.304Z,6.80
2022-12-08T09:24:23.962Z,6.90
2022-12-08T09:25:45.606Z,5.80
2022-12-08T09:27:05.848Z,4.60
2022-12-08T09:28:26.333Z,6.00
2022-12-08T09:29:46.564Z,6.10
2022-12-08T09:31:06.911Z,5.70
2022-12-08T09:32:27.713Z,5.90
2022-12-08T09:33:51.751Z,7.00
2022-12-08T09:35:12.363Z,6.80
2022-12-08T09:36:32.848Z,7.00
2022-12-08T09:37:53.381Z,5.60
2022-12-08T09:39:13.654Z,5.90
2022-12-08T09:40:41.858Z,6.80
2022-12-08T09:42:04.745Z,6.40
2022-12-08T09:43:34.054Z,5.90
2022-12-08T09:45:12.607Z,5.30
2022-12-08T09:46:34.854Z,6.50
2022-12-08T09:48:14.177Z,6.30
2022-12-08T09:49:45.122Z,8.30
2022-12-08T09:51:06.351Z,6.80
2022-12-08T09:52:32.195Z,5.10
2022-12-08T09:54:00.284Z,6.60
2022-12-08T09:55:26.811Z,5.50
2022-12-08T09:56:49.194Z,6.90
2022-12-08T09:58:25.638Z,5.10
2022-12-08T09:59:52.909Z,4.40
2022-12-08T10:01:14.464Z,6.10
2022-12-08T10:02:35.188Z,5.80
2022-12-08T10:03:56.516Z,5.70
2022-12-08T10:05:16.497Z,4.60
2022-12-08T10:06:39.720Z,5.80
2022-12-08T10:08:19.452Z,4.90
2022-12-08T10:09:54.478Z,5.00
2022-12-08T10:11:22.220Z,4.10
2022-12-08T10:12:57.513Z,5.60
2022-12-08T10:14:43.855Z,6.40
2022-12-08T10:16:13.917Z,5.30
2022-12-08T10:17:51.045Z,6.20
2022-12-08T10:19:17.558Z,5.60
2022-12-08T10:20:41.691Z,6.00
2022-12-08T10:22:13.558Z,5.40
2022-12-08T10:23:36.680Z,6.00
2022-12-08T10:25:15.494Z,5.60
2022-12-08T10:26:35.337Z,5.90
2022-12-08T10:27:55.293Z,5.00
2022-12-08T10:29:15.598Z,5.10
2022-12-08T10:30:36.204Z,5.20
2022-12-08T10:31:58.750Z,5.20
2022-12-08T10:33:21.833Z,4.80
2022-12-08T10:35:01.435Z,5.00
2022-12-08T10:36:22.109Z,4.80
2022-12-08T10:37:55.297Z,4.50
2022-12-08T10:39:46.873Z,6.40
2022-12-08T10:41:14.112Z,4.50
2022-12-08T10:42:39.901Z,4.90
2022-12-08T10:44:01.635Z,4.20
2022-12-08T10:45:33.277Z,5.10
2022-12-08T10:46:53.657Z,4.70
2022-12-08T10:48:16.033Z,4.50
2022-12-08T10:49:38.476Z,4.70
2022-12-08T10:51:00.079Z,4.60
2022-12-08T10:52:23.678Z,4.60
2022-12-08T10:53:47.108Z,5.10
2022-12-08T10:55:18.463Z,4.70
2022-12-08T10:56:39.044Z,4.40
2022-12-08T10:57:59.643Z,4.90
2022-12-08T10:59:20.146Z,5.10
2022-12-08T11:00:40.554Z,5.60
2022-12-08T11:02:01.009Z,4.60
2022-12-08T11:03:27.415Z,5.10
2022-12-08T11:04:47.827Z,4.60
2022-12-08T11:06:34.320Z,4.90
2022-12-08T11:07:56.130Z,4.80
2022-12-08T11:09:16.192Z,5.90
2022-12-08T11:10:43.436Z,5.30
2022-12-08T11:12:14.841Z,5.20
2022-12-08T11:13:41.948Z,4.30
2022-12-08T11:15:03.649Z,4.60
2022-12-08T11:16:23.912Z,4.30
2022-12-08T11:17:48.696Z,2.60
2022-12-08T11:19:16.769Z,5.00
2022-12-08T11:20:41.883Z,4.80
2022-12-08T11:22:02.056Z,5.20
2022-12-08T11:23:26.195Z,4.70
2022-12-08T11:24:56.593Z,4.40
2022-12-08T11:26:19.527Z,5.10
2022-12-08T11:27:46.583Z,4.60
2022-12-08T11:29:11.555Z,4.10
2022-12-08T11:30:39.113Z,4.20
2022-12-08T11:32:00.914Z,4.70
2022-12-08T11:33:23.873Z,4.70
2022-12-08T11:34:53.281Z,4.40
2022-12-08T11:36:15.637Z,5.20
2022-12-08T11:37:40.069Z,4.40
2022-12-08T11:39:03.595Z,4.70
2022-12-08T11:40:29.986Z,4.60
2022-12-08T11:41:53.500Z,4.90
2022-12-08T11:43:48.194Z,4.80
2022-12-08T11:45:16.001Z,5.40
2022-12-08T11:46:59.817Z,4.50
2022-12-08T11:48:29.880Z,5.20
2022-12-08T11:49:56.906Z,5.10
2022-12-08T11:51:28.256Z,3.90
2022-12-08T11:52:51.221Z,4.70
2022-12-08T11:54:23.975Z,4.60
2022-12-08T11:55:54.990Z,4.40
2022-12-08T11:57:20.873Z,4.20
2022-12-08T11:58:45.983Z,4.60
2022-12-08T12:00:07.593Z,4.50
2022-12-08T12:01:32.382Z,5.00
2022-12-08T12:03:04.768Z,4.80
2022-12-08T12:04:44.212Z,4.40
2022-12-08T12:06:54.406Z,4.20
2022-12-08T12:08:19.369Z,3.70
2022-12-08T12:09:48.845Z,5.60
2022-12-08T12:11:54.226Z,4.70
2022-12-08T12:13:42.217Z,6.00
2022-12-08T12:15:28.747Z,4.30
2022-12-08T12:17:07.281Z,4.60
2022-12-08T12:18:33.308Z,5.50
2022-12-08T12:19:55.639Z,5.20
2022-12-08T12:21:22.829Z,4.90
2022-12-08T12:22:50.910Z,4.60
2022-12-08T12:24:20.948Z,4.60
2022-12-08T12:26:05.516Z,5.10
2022-12-08T12:27:38.139Z,5.10
2022-12-08T12:29:06.897Z,7.20
2022-12-08T12:30:34.468Z,5.10
2022-12-08T12:32:01.500Z,4.60
2022-12-08T12:33:23.001Z,5.00
2022-12-08T12:34:56.854Z,4.70
2022-12-08T12:36:18.231Z,5.30
2022-12-08T12:37:42.184Z,5.30
2022-12-08T12:39:06.145Z,4.90
2022-12-08T12:40:34.031Z,4.70
2022-12-08T12:42:00.033Z,3.40
2022-12-08T12:43:31.305Z,4.50
2022-12-08T12:45:22.372Z,4.50
2022-12-08T12:46:53.261Z,4.20
2022-12-08T12:48:21.658Z,5.40
2022-12-08T12:49:46.098Z,5.40
2022-12-08T12:51:44.004Z,4.20
2022-12-08T12:53:12.346Z,4.40
2022-12-08T12:54:34.218Z,3.60
2022-12-08T12:55:59.821Z,3.90
2022-12-08T12:57:19.957Z,3.90
2022-12-08T12:58:42.768Z,3.50
2022-12-08T13:00:03.448Z,3.90
2022-12-08T13:01:23.766Z,3.80
2022-12-08T13:02:44.623Z,4.80
2022-12-08T13:04:08.953Z,4.50
2022-12-08T13:05:46.297Z,4.60
2022-12-08T13:07:06.968Z,3.90
2022-12-08T13:08:28.270Z,3.90
2022-12-08T13:09:57.151Z,4.10
2022-12-08T13:11:17.636Z,4.10
2022-12-08T13:12:37.995Z,4.20
2022-12-08T13:14:04.370Z,4.40
2022-12-08T13:15:25.168Z,3.90
2022-12-08T13:16:46.723Z,3.90
2022-12-08T13:18:19.742Z,3.40
2022-12-08T13:19:41.145Z,4.80
2022-12-08T13:21:05.876Z,3.70
2022-12-08T13:22:47.969Z,3.80
2022-12-08T13:24:14.808Z,3.70
2022-12-08T13:27:07.237Z,5.70
2022-12-08T13:28:29.776Z,3.60
2022-12-08T13:30:28.799Z,4.10
2022-12-08T13:33:16.763Z,3.60
2022-12-08T13:34:52.300Z,3.10
2022-12-08T13:36:38.813Z,3.30
2022-12-08T13:38:00.217Z,2.60
2022-12-08T13:39:26.617Z,3.80
2022-12-08T13:40:48.143Z,3.40
2022-12-08T13:42:17.482Z,3.20
2022-12-08T13:44:20.601Z,3.00
2022-12-08T13:47:37.110Z,2.60
2022-12-08T13:53:49.584Z,2.50
2022-12-08T13:55:49.507Z,3.00
2022-12-08T13:57:57.132Z,2.90
2022-12-08T13:59:20.154Z,2.50
2022-12-08T14:00:40.636Z,2.50
2022-12-08T14:02:20.697Z,3.00
2022-12-08T14:04:30.928Z,3.10
2022-12-08T14:06:11.136Z,2.40
2022-12-08T14:07:24.208Z,2.60
2022-12-08T14:09:01.190Z,2.40
2022-12-08T14:10:29.247Z,2.30
2022-12-08T14:11:59.536Z,2.30
2022-12-08T14:13:20.331Z,2.80
2022-12-08T14:16:33.614Z,2.40
2022-12-08T14:17:56.664Z,2.10
2022-12-08T14:19:23.738Z,2.00
2022-12-08T14:21:21.153Z,2.10
2022-12-08T14:22:41.975Z,2.00
2022-12-08T14:24:03.198Z,2.60
2022-12-08T14:25:24.364Z,2.70
2022-12-08T14:26:46.628Z,2.50
2022-12-08T14:28:07.547Z,2.30
2022-12-08T14:29:48.455Z,2.10
2022-12-08T14:31:13.920Z,2.70
2022-12-08T14:32:36.884Z,2.80
2022-12-08T14:33:57.396Z,2.70
2022-12-08T14:35:25.126Z,3.20
2022-12-08T14:36:45.871Z,3.70
2022-12-08T14:38:56.815Z,3.20
2022-12-08T14:40:23.372Z,3.00
2022-12-08T14:42:00.326Z,2.90
2022-12-08T14:43:27.170Z,2.70
2022-12-08T14:44:58.050Z,3.20
2022-12-08T14:46:22.936Z,3.70
2022-12-08T14:47:47.097Z,3.70
2022-12-08T14:49:34.195Z,3.70
2022-12-08T14:51:23.047Z,3.50
2022-12-08T14:52:45.939Z,3.30
2022-12-08T14:54:13.783Z,3.60
2022-12-08T14:55:37.526Z,4.50
2022-12-08T14:57:01.481Z,4.70
2022-12-08T14:58:30.158Z,4.10
2022-12-08T14:59:52.998Z,3.40
2022-12-08T15:01:22.506Z,3.90
2022-12-08T15:02:46.707Z,3.80
2022-12-08T15:04:11.867Z,3.00
2022-12-08T15:05:34.754Z,3.40
2022-12-08T15:07:13.576Z,3.90
2022-12-08T15:08:52.770Z,4.70
2022-12-08T15:10:15.250Z,3.30
2022-12-08T15:11:37.925Z,4.00
2022-12-08T15:13:09.527Z,4.40
2022-12-08T15:14:35.449Z,3.30
2022-12-08T15:15:58.657Z,4.50
2022-12-08T15:17:31.857Z,3.60
2022-12-08T15:19:24.413Z,4.00
2022-12-08T15:20:51.545Z,3.60
2022-12-08T15:22:20.973Z,4.00
2022-12-08T15:23:45.911Z,3.80
2022-12-08T15:25:13.680Z,3.60
2022-12-08T15:26:42.145Z,4.30
2022-12-08T15:28:04.636Z,3.60
2022-12-08T15:29:31.318Z,3.60
2022-12-08T15:30:54.886Z,4.90
2022-12-08T15:32:20.626Z,4.00
2022-12-08T15:33:42.798Z,4.30
2022-12-08T15:35:07.381Z,4.30
2022-12-08T15:36:30.210Z,4.40
2022-12-08T15:37:52.658Z,4.00
2022-12-08T15:39:32.941Z,5.20
2022-12-08T15:40:56.477Z,4.80
2022-12-08T15:42:18.895Z,3.90
2022-12-08T15:43:41.333Z,4.70
2022-12-08T15:45:04.335Z,4.00
2022-12-08T15:46:27.256Z,4.60
2022-12-08T15:47:49.544Z,4.00
2022-12-08T15:49:21.073Z,4.40
2022-12-08T15:50:43.536Z,4.40
2022-12-08T15:52:12.314Z,4.60
2022-12-08T15:53:34.983Z,4.70
2022-12-08T15:54:57.493Z,4.60
2022-12-08T15:56:27.278Z,4.60
2022-12-08T15:58:51.299Z,4.30
2022-12-08T15:59:36.283Z,3.80
2022-12-08T16:00:58.907Z,4.20
2022-12-08T16:02:23.073Z,4.40
2022-12-08T16:05:46.526Z,5.50
2022-12-08T16:07:37.824Z,4.90
2022-12-08T16:09:11.978Z,4.10
2022-12-08T16:11:00.680Z,5.00
2022-12-08T16:15:30.344Z,3.90
2022-12-08T16:16:05.154Z,4.20
2022-12-08T16:17:28.816Z,4.30
2022-12-08T16:18:51.398Z,4.80
2022-12-08T16:20:16.840Z,4.30
2022-12-08T16:22:29.872Z,6.30
2022-12-08T16:23:41.606Z,5.10
2022-12-08T16:25:21.414Z,4.50
2022-12-08T16:27:58.067Z,5.40
2022-12-08T16:28:53.532Z,5.00
2022-12-08T16:31:39.990Z,4.70
2022-12-08T16:33:02.783Z,5.10
2022-12-08T16:34:25.276Z,5.40
2022-12-08T16:35:47.823Z,4.90
2022-12-08T16:37:21.818Z,5.60
2022-12-08T16:38:44.854Z,5.10
2022-12-08T16:40:08.559Z,5.00
2022-12-08T16:41:49.357Z,5.30
2022-12-08T16:43:12.065Z,5.60
2022-12-08T16:44:34.459Z,6.40
2022-12-08T16:45:57.061Z,4.90
2022-12-08T16:47:19.700Z,5.10
2022-12-08T16:48:42.543Z,4.70
2022-12-08T16:50:07.831Z,5.50
2022-12-08T16:51:30.552Z,3.90
2022-12-08T16:53:01.835Z,5.20
2022-12-08T16:54:24.298Z,5.20
2022-12-08T16:55:47.999Z,5.20
2022-12-08T16:57:12.268Z,4.60
2022-12-08T16:58:35.048Z,4.90
2022-12-08T16:59:58.022Z,5.60
2022-12-08T17:01:20.958Z,4.90
2022-12-08T17:02:43.458Z,4.90
2022-12-08T17:07:54.883Z,5.20
2022-12-08T17:09:17.629Z,5.00
2022-12-08T17:10:41.154Z,5.90
2022-12-08T17:12:04.515Z,4.70
2022-12-08T17:13:26.735Z,4.90
2022-12-08T17:14:48.829Z,5.70
2022-12-08T17:16:16.304Z,5.70
2022-12-08T17:17:39.520Z,6.80
2022-12-08T17:19:01.852Z,6.60
2022-12-08T17:20:27.088Z,4.80
2022-12-08T17:21:50.186Z,4.80
2022-12-08T17:23:13.242Z,4.90
2022-12-08T17:24:37.509Z,5.90
2022-12-08T17:26:01.076Z,5.80
2022-12-08T17:27:23.652Z,6.20
2022-12-08T17:29:01.946Z,5.40
2022-12-08T17:30:24.891Z,5.00
2022-12-08T17:31:47.523Z,5.60
2022-12-08T17:43:10.621Z,5.10
2022-12-08T17:44:34.053Z,4.50
2022-12-08T17:45:57.465Z,6.60
2022-12-08T17:47:20.702Z,5.40
2022-12-08T17:48:43.213Z,5.40
2022-12-08T17:50:07.277Z,6.40
2022-12-08T17:51:30.055Z,6.40
2022-12-08T17:52:52.719Z,6.00
2022-12-08T17:54:17.247Z,5.20
2022-12-08T17:55:40.943Z,5.90
2022-12-08T17:57:04.004Z,5.90
2022-12-08T17:58:27.445Z,5.50
2022-12-08T17:59:50.135Z,5.20
2022-12-08T18:01:12.979Z,5.40
2022-12-08T18:02:37.845Z,6.70
2022-12-08T18:04:05.568Z,6.10
2022-12-08T18:05:28.041Z,6.80
2022-12-08T18:06:50.654Z,6.10
2022-12-08T18:08:12.164Z,5.10
2022-12-08T18:09:38.622Z,4.70
2022-12-08T18:11:01.390Z,5.90
2022-12-08T18:12:24.177Z,5.80
2022-12-08T18:13:48.916Z,5.10
2022-12-08T18:15:15.914Z,5.20
2022-12-08T18:16:41.071Z,6.70
2022-12-08T18:18:03.903Z,5.80
2022-12-08T18:19:26.475Z,5.80
2022-12-08T18:20:49.657Z,5.00
2022-12-08T18:22:12.450Z,5.90
2022-12-08T18:23:37.755Z,6.50
2022-12-08T18:25:00.287Z,7.20
2022-12-08T18:26:23.043Z,6.20
2022-12-08T18:27:45.938Z,7.20
2022-12-08T18:29:08.378Z,7.40
2022-12-08T18:30:30.564Z,6.50
2022-12-08T18:31:52.932Z,6.90
2022-12-08T18:33:15.471Z,6.30
2022-12-08T18:34:37.973Z,6.70
2022-12-08T18:36:00.023Z,6.40
2022-12-08T18:37:22.373Z,6.80
2022-12-08T18:38:45.136Z,6.40
2022-12-08T18:40:08.320Z,7.60
2022-12-08T18:41:30.686Z,7.00
2022-12-08T18:42:53.257Z,6.10
2022-12-08T18:44:15.721Z,7.40
2022-12-08T18:45:39.616Z,6.70
2022-12-08T18:47:03.517Z,7.20
2022-12-08T18:48:26.182Z,6.20
2022-12-08T18:49:48.501Z,5.70
2022-12-08T18:51:15.896Z,5.70
2022-12-08T18:52:38.474Z,5.70
2022-12-08T18:54:00.780Z,5.60
2022-12-08T18:55:23.488Z,6.10
2022-12-08T18:56:45.928Z,5.90
2022-12-08T18:58:08.100Z,5.90
2022-12-08T18:59:30.714Z,6.00
2022-12-08T19:00:53.200Z,6.20
2022-12-08T19:02:15.935Z,5.10
2022-12-08T19:03:43.076Z,5.30
2022-12-08T19:05:13.608Z,5.40
2022-12-08T19:06:40.349Z,6.20
2022-12-08T19:08:02.749Z,5.90
2022-12-08T19:09:26.656Z,6.30
2022-12-08T19:10:49.098Z,7.20
2022-12-08T19:12:13.087Z,6.00
2022-12-08T19:13:35.732Z,5.80
2022-12-08T19:14:58.301Z,5.30
2022-12-08T19:16:21.061Z,6.40
2022-12-08T19:17:43.759Z,6.50
2022-12-08T19:19:05.944Z,5.80
2022-12-08T19:20:28.586Z,8.10
2022-12-08T19:21:51.259Z,7.20
2022-12-08T19:23:14.510Z,5.40
2022-12-08T19:24:37.054Z,4.20
2022-12-08T19:25:59.897Z,5.40
2022-12-08T19:27:21.989Z,6.60
2022-12-08T19:46:22.921Z,5.10
2022-12-08T19:47:45.553Z,5.70
2022-12-08T19:49:07.756Z,5.80
2022-12-08T19:50:36.194Z,6.20
2022-12-08T19:51:59.088Z,5.40